createdAt,value
2017-11-10T00:01:59.261Z,7.50
2017-11-10T00:04:26.876Z,7.47
2017-11-10T00:06:54.403Z,7.46
2017-11-10T00:09:22.007Z,7.50
2017-11-10T00:11:49.538Z,7.53
2017-11-10T00:14:17.072Z,7.51
2017-11-10T00:16:44.662Z,7.48
2017-11-10T00:19:12.198Z,7.53
2017-11-10T00:21:39.742Z,7.52
2017-11-10T00:24:07.297Z,7.54
2017-11-10T00:26:34.829Z,7.60
2017-11-10T00:29:02.358Z,7.62
2017-11-10T00:31:29.946Z,7.62
2017-11-10T00:33:57.590Z,7.62
2017-11-10T00:36:25.085Z,7.65
2017-11-10T00:38:52.616Z,7.64
2017-11-10T00:41:20.105Z,7.64
2017-11-10T00:43:47.593Z,7.66
2017-11-10T00:46:15.160Z,7.62
2017-11-10T00:48:42.648Z,7.64
2017-11-10T00:51:10.147Z,7.68
2017-11-10T00:53:37.690Z,7.65
2017-11-10T00:56:05.192Z,7.62
2017-11-10T00:58:32.773Z,7.55
2017-11-10T01:01:00.293Z,7.53
2017-11-10T01:03:27.777Z,7.51
2017-11-10T01:05:55.327Z,7.47
2017-11-10T01:08:22.868Z,7.44
2017-11-10T01:10:50.354Z,7.40
2017-11-10T01:13:17.848Z,7.47
2017-11-10T01:15:45.384Z,7.56
2017-11-10T01:18:12.872Z,7.55
2017-11-10T01:20:40.357Z,7.54
2017-11-10T01:23:07.942Z,7.46
2017-11-10T01:25:35.432Z,7.47
2017-11-10T01:28:02.944Z,7.47
2017-11-10T01:30:30.468Z,7.45
2017-11-10T01:32:57.965Z,7.40
2017-11-10T01:35:25.532Z,7.39
2017-11-10T01:37:53.049Z,7.31
2017-11-10T01:40:20.644Z,7.24
2017-11-10T01:42:48.131Z,7.13
2017-11-10T01:45:17.449Z,7.06
2017-11-10T01:47:44.967Z,7.03
2017-11-10T01:50:12.473Z,6.98
2017-11-10T01:52:39.980Z,6.96
2017-11-10T01:55:07.541Z,6.91
2017-11-10T01:57:35.037Z,6.90
2017-11-10T02:00:02.533Z,6.85
2017-11-10T02:02:30.065Z,6.78
2017-11-10T02:04:57.556Z,6.78
2017-11-10T02:07:25.049Z,6.81
2017-11-10T02:09:52.584Z,6.76
2017-11-10T02:12:20.121Z,6.76
2017-11-10T02:14:47.626Z,6.79
2017-11-10T02:17:15.112Z,6.79
2017-11-10T02:19:42.651Z,6.77
2017-11-10T02:22:10.181Z,6.71
2017-11-10T02:24:37.736Z,6.71
2017-11-10T02:27:05.407Z,6.68
2017-11-10T02:29:32.907Z,6.66
2017-11-10T02:32:00.417Z,6.69
2017-11-10T02:34:27.952Z,6.71
2017-11-10T02:36:55.445Z,6.73
2017-11-10T02:39:27.981Z,6.74
2017-11-10T02:41:55.475Z,6.73
2017-11-10T02:44:22.971Z,6.72
2017-11-10T02:46:50.506Z,6.71
2017-11-10T02:49:17.997Z,6.71
2017-11-10T02:51:45.486Z,6.67
2017-11-10T02:54:13.028Z,6.68
2017-11-10T02:56:40.542Z,6.68
2017-11-10T02:59:08.037Z,6.68
2017-11-10T03:01:35.570Z,6.69
2017-11-10T03:04:03.066Z,6.68
2017-11-10T03:06:30.649Z,6.70
2017-11-10T03:08:58.198Z,6.71
2017-11-10T03:11:25.689Z,6.71
2017-11-10T03:13:53.179Z,6.68
2017-11-10T03:16:20.703Z,6.65
2017-11-10T03:18:48.189Z,6.61
2017-11-10T03:21:15.702Z,6.65
2017-11-10T03:23:43.357Z,6.66
2017-11-10T03:26:10.920Z,6.67
2017-11-10T03:28:38.415Z,6.63
2017-11-10T03:31:05.946Z,6.65
2017-11-10T03:33:33.502Z,6.68
2017-11-10T03:36:00.997Z,6.69
2017-11-10T03:38:28.626Z,6.68
2017-11-10T03:40:56.154Z,6.69
2017-11-10T03:43:23.646Z,6.67
2017-11-10T03:45:51.185Z,6.69
2017-11-10T03:48:18.683Z,6.72
2017-11-10T03:50:46.173Z,6.73
2017-11-10T03:53:13.697Z,6.74
2017-11-10T03:55:41.187Z,6.73
2017-11-10T03:58:08.784Z,6.72
2017-11-10T04:00:36.347Z,6.73
2017-11-10T04:03:03.905Z,6.71
2017-11-10T04:05:31.403Z,6.68
2017-11-10T04:07:59.024Z,6.69
2017-11-10T04:10:26.527Z,6.71
2017-11-10T04:12:54.026Z,6.71
2017-11-10T04:15:21.560Z,6.75
2017-11-10T04:17:49.069Z,6.75
2017-11-10T04:20:16.617Z,6.75
2017-11-10T04:22:44.152Z,6.74
2017-11-10T04:25:12.936Z,6.74
2017-11-10T04:27:40.424Z,6.74
2017-11-10T04:30:07.976Z,6.75
2017-11-10T04:32:35.471Z,6.80
2017-11-10T04:35:02.993Z,6.83
2017-11-10T04:37:30.522Z,6.83
2017-11-10T04:39:58.020Z,6.81
2017-11-10T04:42:25.572Z,6.80
2017-11-10T04:44:53.186Z,6.77
2017-11-10T04:47:20.787Z,6.80
2017-11-10T04:49:48.283Z,6.83
2017-11-10T04:52:15.840Z,6.86
2017-11-10T04:54:43.364Z,6.88
2017-11-10T04:57:10.852Z,6.90
2017-11-10T04:59:38.373Z,6.92
2017-11-10T05:02:05.864Z,6.89
2017-11-10T05:04:33.393Z,6.93
2017-11-10T05:07:00.917Z,6.91
2017-11-10T05:09:28.432Z,6.89
2017-11-10T05:11:55.924Z,6.94
2017-11-10T05:14:23.452Z,6.97
2017-11-10T05:16:50.962Z,7.01
2017-11-10T05:19:18.579Z,6.98
2017-11-10T05:21:46.313Z,7.02
2017-11-10T05:24:13.805Z,7.04
2017-11-10T05:26:41.299Z,7.04
2017-11-10T05:29:08.839Z,7.02
2017-11-10T05:31:36.329Z,7.02
2017-11-10T05:34:03.835Z,7.07
2017-11-10T05:36:31.374Z,7.09
2017-11-10T05:38:58.868Z,7.07
2017-11-10T05:41:26.367Z,7.12
2017-11-10T05:43:53.921Z,7.14
2017-11-10T05:46:21.414Z,7.16
2017-11-10T05:48:48.905Z,7.18
2017-11-10T05:51:16.448Z,7.20
2017-11-10T05:53:43.941Z,7.19
2017-11-10T05:56:11.433Z,7.22
2017-11-10T05:58:38.949Z,7.23
2017-11-10T06:01:07.248Z,7.22
2017-11-10T06:03:34.786Z,7.21
2017-11-10T06:06:02.280Z,7.19
2017-11-10T06:08:29.773Z,7.16
2017-11-10T06:10:57.306Z,7.17
2017-11-10T06:13:24.798Z,7.21
2017-11-10T06:15:52.305Z,7.20
2017-11-10T06:18:19.974Z,7.17
2017-11-10T06:20:47.479Z,7.13
2017-11-10T06:23:14.987Z,7.11
2017-11-10T06:25:42.542Z,7.14
2017-11-10T06:28:10.060Z,7.15
2017-11-10T06:30:37.585Z,7.15
2017-11-10T06:33:05.102Z,7.15
2017-11-10T06:35:32.690Z,7.15
2017-11-10T06:38:00.349Z,7.16
2017-11-10T06:40:27.907Z,7.19
2017-11-10T06:42:55.402Z,7.22
2017-11-10T06:45:22.950Z,7.22
2017-11-10T06:47:50.443Z,7.22
2017-11-10T06:50:17.951Z,7.18
2017-11-10T06:52:45.488Z,7.17
2017-11-10T06:55:12.977Z,7.19
2017-11-10T06:57:40.534Z,7.22
2017-11-10T07:00:08.053Z,7.23
2017-11-10T07:02:35.548Z,7.19
2017-11-10T07:05:03.048Z,7.20
2017-11-10T07:07:30.670Z,7.22
2017-11-10T07:09:58.229Z,7.24
2017-11-10T07:12:25.726Z,7.28
2017-11-10T07:14:53.266Z,7.24
2017-11-10T07:17:20.847Z,7.25
2017-11-10T07:19:48.344Z,7.26
2017-11-10T07:22:15.898Z,7.30
2017-11-10T07:24:43.481Z,7.32
2017-11-10T07:27:10.970Z,7.31
2017-11-10T07:29:38.585Z,7.36
2017-11-10T07:32:06.072Z,7.38
2017-11-10T07:34:33.805Z,7.38
2017-11-10T07:37:01.300Z,7.42
2017-11-10T07:39:28.818Z,7.42
2017-11-10T07:41:56.352Z,7.38
2017-11-10T07:44:23.940Z,7.37
2017-11-10T07:46:51.451Z,7.38
2017-11-10T07:49:19.164Z,7.39
2017-11-10T07:51:46.676Z,7.35
2017-11-10T07:54:14.164Z,7.36
2017-11-10T07:56:41.848Z,7.39
2017-11-10T07:59:09.336Z,7.36
2017-11-10T08:01:36.849Z,7.36
2017-11-10T08:04:04.433Z,7.36
2017-11-10T08:06:31.937Z,7.39
2017-11-10T08:08:59.432Z,7.38
2017-11-10T08:11:26.972Z,7.38
2017-11-10T08:13:54.470Z,7.36
2017-11-10T08:16:21.969Z,7.35
2017-11-10T08:18:49.510Z,7.39
2017-11-10T08:21:17.011Z,7.45
2017-11-10T08:23:44.587Z,7.51
2017-11-10T08:26:12.141Z,7.57
2017-11-10T08:28:39.687Z,7.59
2017-11-10T08:31:07.187Z,7.65
2017-11-10T08:33:34.678Z,7.66
2017-11-10T08:36:02.192Z,7.61
2017-11-10T08:38:29.687Z,7.58
2017-11-10T08:40:57.187Z,7.61
2017-11-10T08:43:24.753Z,7.62
2017-11-10T08:45:52.326Z,7.57
2017-11-10T08:48:19.874Z,7.59
2017-11-10T08:50:47.533Z,7.65
2017-11-10T08:53:15.028Z,7.68
2017-11-10T08:55:42.514Z,7.74
2017-11-10T08:58:10.198Z,7.76
2017-11-10T09:00:37.695Z,7.77
2017-11-10T09:03:05.209Z,7.82
2017-11-10T09:05:32.735Z,7.83
2017-11-10T09:08:00.221Z,7.87
2017-11-10T09:10:27.716Z,7.89
2017-11-10T09:12:55.356Z,7.92
2017-11-10T09:15:22.852Z,7.89
2017-11-10T09:17:50.392Z,7.84
2017-11-10T09:20:17.936Z,7.85
2017-11-10T09:22:45.463Z,7.79
2017-11-10T09:25:12.974Z,7.74
2017-11-10T09:27:40.514Z,7.80
2017-11-10T09:30:18.512Z,7.95
2017-11-10T09:32:47.973Z,8.07
2017-11-10T09:35:21.069Z,7.98
2017-11-10T09:37:54.419Z,7.98
2017-11-10T09:40:27.634Z,7.92
2017-11-10T09:46:22.823Z,7.81
2017-11-10T09:48:56.000Z,7.78
2017-11-10T09:51:29.205Z,7.80
2017-11-10T09:54:02.399Z,7.78
2017-11-10T09:59:37.384Z,7.69
2017-11-10T10:02:14.810Z,7.68
2017-11-10T10:04:42.340Z,7.75
2017-11-10T10:07:11.329Z,7.72
2017-11-10T10:09:40.607Z,7.75
2017-11-10T10:12:13.880Z,7.74
2017-11-10T10:14:43.302Z,7.75
2017-11-10T10:17:12.757Z,7.76
2017-11-10T10:19:45.999Z,7.77
2017-11-10T10:22:14.297Z,7.79
2017-11-10T10:24:41.806Z,7.81
2017-11-10T10:27:09.341Z,7.83
2017-11-10T10:29:36.829Z,7.89
2017-11-10T10:32:04.323Z,8.01
2017-11-10T10:34:31.869Z,8.07
2017-11-10T10:36:59.361Z,8.19
2017-11-10T10:39:26.864Z,8.22
2017-11-10T10:41:54.430Z,8.26
2017-11-10T10:44:21.938Z,8.26
2017-11-10T10:46:49.443Z,8.23
2017-11-10T10:49:16.991Z,8.27
2017-11-10T10:51:44.561Z,8.31
2017-11-10T10:54:12.117Z,8.36
2017-11-10T10:56:39.663Z,8.44
2017-11-10T10:59:07.157Z,8.47
2017-11-10T11:01:34.692Z,8.55
2017-11-10T11:04:02.237Z,8.64
2017-11-10T11:06:29.736Z,8.69
2017-11-10T11:08:57.230Z,8.70
2017-11-10T11:11:24.783Z,8.71
2017-11-10T11:13:52.272Z,8.83
2017-11-10T11:16:19.858Z,8.87
2017-11-10T11:18:47.394Z,8.87
2017-11-10T11:21:14.877Z,8.91
2017-11-10T11:23:42.378Z,9.03
2017-11-10T11:26:09.981Z,9.09
2017-11-10T11:28:37.480Z,9.07
2017-11-10T11:31:04.993Z,8.98
2017-11-10T11:33:32.550Z,8.92
2017-11-10T11:36:00.231Z,8.89
2017-11-10T11:38:27.725Z,8.85
2017-11-10T11:40:55.252Z,8.88
2017-11-10T11:43:22.772Z,8.67
2017-11-10T11:45:50.381Z,8.61
2017-11-10T11:48:17.942Z,8.61
2017-11-10T11:50:45.490Z,8.69
2017-11-10T11:53:12.985Z,8.66
2017-11-10T11:55:40.505Z,8.62
2017-11-10T11:58:08.057Z,8.70
2017-11-10T12:00:35.618Z,8.66
2017-11-10T12:03:03.169Z,8.71
2017-11-10T12:05:30.738Z,8.75
2017-11-10T12:07:58.236Z,8.73
2017-11-10T12:10:25.729Z,8.68
2017-11-10T12:12:53.301Z,8.69
2017-11-10T12:15:20.805Z,8.62
2017-11-10T12:17:48.298Z,8.52
2017-11-10T12:20:15.883Z,8.44
2017-11-10T12:22:43.373Z,8.34
2017-11-10T12:25:10.896Z,8.36
2017-11-10T12:27:38.466Z,8.32
2017-11-10T12:30:05.961Z,8.21
2017-11-10T12:32:33.477Z,8.15
2017-11-10T12:35:01.141Z,8.07
2017-11-10T12:37:28.637Z,8.02
2017-11-10T12:39:56.285Z,7.98
2017-11-10T12:42:23.825Z,7.96
2017-11-10T12:44:51.385Z,7.94
2017-11-10T12:47:18.876Z,7.88
2017-11-10T12:49:46.396Z,7.86
2017-11-10T12:52:13.893Z,7.79
2017-11-10T12:54:41.376Z,7.78
2017-11-10T12:57:08.944Z,7.78
2017-11-10T12:59:36.433Z,7.79
2017-11-10T13:02:03.922Z,7.78
2017-11-10T13:04:31.571Z,7.76
2017-11-10T13:06:59.063Z,7.72
2017-11-10T13:09:26.552Z,7.73
2017-11-10T13:11:54.120Z,7.72
2017-11-10T13:14:21.614Z,7.76
2017-11-10T13:16:49.136Z,7.83
2017-11-10T13:19:16.674Z,7.92
2017-11-10T13:21:44.176Z,8.03
2017-11-10T13:24:11.670Z,8.08
2017-11-10T13:26:39.192Z,8.17
2017-11-10T13:29:06.688Z,8.17
2017-11-10T13:31:34.293Z,8.10
2017-11-10T13:34:01.805Z,8.07
2017-11-10T13:36:29.306Z,7.93
2017-11-10T13:38:56.883Z,7.89
2017-11-10T13:41:24.376Z,7.94
2017-11-10T13:43:51.865Z,7.96
2017-11-10T13:46:19.400Z,7.99
2017-11-10T13:48:46.916Z,8.03
2017-11-10T13:51:14.404Z,7.99
2017-11-10T13:53:41.939Z,8.00
2017-11-10T13:56:09.440Z,7.91
2017-11-10T13:58:36.928Z,7.90
2017-11-10T14:01:04.587Z,7.93
2017-11-10T14:03:32.085Z,7.95
2017-11-10T14:05:59.593Z,7.93
2017-11-10T14:08:27.170Z,7.94
2017-11-10T14:10:54.670Z,7.94
2017-11-10T14:13:22.382Z,7.97
2017-11-10T14:15:49.885Z,7.97
2017-11-10T14:18:17.383Z,7.98
2017-11-10T14:20:44.931Z,8.00
2017-11-10T14:23:12.434Z,8.01
2017-11-10T14:25:39.924Z,7.99
2017-11-10T14:28:07.451Z,8.02
2017-11-10T14:30:34.946Z,8.00
2017-11-10T14:33:02.433Z,8.02
2017-11-10T14:35:29.978Z,8.02
2017-11-10T14:37:57.469Z,8.02
2017-11-10T14:40:24.959Z,8.01
2017-11-10T14:42:52.468Z,7.99
2017-11-10T14:45:20.017Z,7.95
2017-11-10T14:47:47.607Z,7.92
2017-11-10T14:50:15.110Z,8.08
2017-11-10T14:52:42.654Z,8.11
2017-11-10T14:55:10.152Z,8.11
2017-11-10T14:57:37.641Z,8.01
2017-11-10T15:00:05.288Z,7.90
2017-11-10T15:02:32.781Z,7.82
2017-11-10T15:05:00.312Z,7.76
2017-11-10T15:07:27.835Z,7.75
2017-11-10T15:09:55.328Z,7.75
2017-11-10T15:12:22.825Z,7.73
2017-11-10T15:14:50.343Z,7.67
2017-11-10T15:17:17.836Z,7.64
2017-11-10T15:19:45.465Z,7.64
2017-11-10T15:22:12.956Z,7.65
2017-11-10T15:24:40.458Z,7.64
2017-11-10T15:27:07.990Z,7.62
2017-11-10T15:29:35.489Z,7.63
2017-11-10T15:32:02.978Z,7.60
2017-11-10T15:34:30.513Z,7.58
2017-11-10T15:36:58.075Z,7.56
2017-11-10T15:39:25.574Z,7.56
2017-11-10T15:41:53.289Z,7.54
2017-11-10T15:44:20.810Z,7.56
2017-11-10T15:46:48.301Z,7.53
2017-11-10T15:49:15.896Z,7.52
2017-11-10T15:51:43.398Z,7.50
2017-11-10T15:54:10.905Z,7.48
2017-11-10T15:56:38.456Z,7.50
2017-11-10T15:59:05.954Z,7.51
2017-11-10T16:01:33.489Z,7.51
2017-11-10T16:04:01.134Z,7.51
2017-11-10T16:06:28.625Z,7.53
2017-11-10T16:08:56.124Z,7.53
2017-11-10T16:11:23.656Z,7.53
2017-11-10T16:13:51.161Z,7.51
2017-11-10T16:16:18.659Z,7.51
2017-11-10T16:18:46.196Z,7.48
2017-11-10T16:21:13.740Z,7.49
2017-11-10T16:23:41.236Z,7.51
2017-11-10T16:26:08.766Z,7.49
2017-11-10T16:28:36.249Z,7.51
2017-11-10T16:31:03.741Z,7.51
2017-11-10T16:33:31.271Z,7.46
2017-11-10T16:35:58.755Z,7.46
2017-11-10T16:38:26.253Z,7.48
2017-11-10T16:40:53.779Z,7.51
2017-11-10T16:43:21.273Z,7.53
2017-11-10T16:45:48.763Z,7.53
2017-11-10T16:48:16.299Z,7.55
2017-11-10T16:50:43.793Z,7.55
2017-11-10T16:53:11.277Z,7.55
2017-11-10T16:55:38.793Z,7.54
2017-11-10T16:58:06.282Z,7.55
2017-11-10T17:00:33.868Z,7.56
2017-11-10T17:03:01.418Z,7.56
2017-11-10T17:05:28.911Z,7.54
2017-11-10T17:07:56.438Z,7.55
2017-11-10T17:10:24.022Z,7.56
2017-11-10T17:12:51.589Z,7.58
2017-11-10T17:15:19.065Z,7.56
2017-11-10T17:17:46.782Z,7.56
2017-11-10T17:20:14.258Z,7.54
2017-11-10T17:22:41.796Z,7.53
2017-11-10T17:25:09.357Z,7.53
2017-11-10T17:27:36.847Z,7.50
2017-11-10T17:30:04.347Z,7.50
2017-11-10T17:32:31.868Z,7.49
2017-11-10T17:34:59.412Z,7.45
2017-11-10T17:37:26.957Z,7.46
2017-11-10T17:39:54.497Z,7.51
2017-11-10T17:42:21.999Z,7.52
2017-11-10T17:44:49.528Z,7.50
2017-11-10T17:47:17.058Z,7.46
2017-11-10T17:49:44.550Z,7.46
2017-11-10T17:52:12.040Z,7.52
2017-11-10T17:54:39.577Z,7.44
2017-11-10T17:57:07.066Z,7.38
2017-11-10T17:59:34.554Z,7.32
2017-11-10T18:02:02.154Z,7.30
2017-11-10T18:04:29.675Z,7.29
2017-11-10T18:06:57.162Z,7.28
2017-11-10T18:09:24.690Z,7.27
2017-11-10T18:11:52.182Z,7.22
2017-11-10T18:14:19.669Z,7.19
2017-11-10T18:16:47.202Z,7.19
2017-11-10T18:19:14.694Z,7.18
2017-11-10T18:21:42.179Z,7.14
2017-11-10T18:24:09.693Z,7.15
2017-11-10T18:26:37.189Z,7.13
2017-11-10T18:29:04.784Z,7.13
2017-11-10T18:31:32.332Z,7.13
2017-11-10T18:33:59.888Z,7.13
2017-11-10T18:36:27.368Z,7.14
2017-11-10T18:38:54.962Z,7.10
2017-11-10T18:41:22.485Z,7.10
2017-11-10T18:43:50.028Z,7.07
2017-11-10T18:46:17.553Z,7.06
2017-11-10T18:48:45.985Z,7.11
2017-11-10T18:51:13.482Z,7.08
2017-11-10T18:53:41.768Z,7.05
2017-11-10T18:56:09.310Z,6.98
2017-11-10T18:58:36.808Z,6.93
2017-11-10T19:01:04.396Z,6.85
2017-11-10T19:03:31.922Z,6.76
2017-11-10T19:05:59.514Z,6.71
2017-11-10T19:08:26.999Z,6.63
2017-11-10T19:10:54.544Z,6.61
2017-11-10T19:13:22.031Z,6.63
2017-11-10T19:15:49.629Z,6.65
2017-11-10T19:18:17.162Z,6.69
2017-11-10T19:20:44.648Z,6.76
2017-11-10T19:23:12.136Z,6.80
2017-11-10T19:25:39.761Z,6.81
2017-11-10T19:28:07.254Z,6.86
2017-11-10T19:30:34.779Z,6.85
2017-11-10T19:33:02.300Z,6.85
2017-11-10T19:35:29.791Z,6.80
2017-11-10T19:37:57.477Z,6.70
2017-11-10T19:40:25.058Z,6.65
2017-11-10T19:42:52.615Z,6.61
2017-11-10T19:45:20.162Z,6.56
2017-11-10T19:47:47.815Z,6.49
2017-11-10T19:50:15.377Z,6.47
2017-11-10T19:52:42.947Z,6.48
2017-11-10T19:55:10.659Z,6.52
2017-11-10T19:57:38.465Z,6.47
2017-11-10T20:00:06.230Z,6.41
2017-11-10T20:02:34.097Z,6.43
2017-11-10T20:05:01.944Z,6.39
2017-11-10T20:07:29.725Z,6.40
2017-11-10T20:09:57.452Z,6.37
2017-11-10T20:12:25.254Z,6.32
2017-11-10T20:14:53.249Z,6.33
2017-11-10T20:17:21.088Z,6.39
2017-11-10T20:19:48.943Z,6.45
2017-11-10T20:22:16.718Z,6.51
2017-11-10T20:24:44.484Z,6.43
2017-11-10T20:27:12.087Z,6.34
2017-11-10T20:29:39.710Z,6.35
2017-11-10T20:32:07.280Z,6.34
2017-11-10T20:34:34.880Z,6.37
2017-11-10T20:37:02.386Z,6.38
2017-11-10T20:39:30.025Z,6.35
2017-11-10T20:41:57.603Z,6.35
2017-11-10T20:44:25.145Z,6.30
2017-11-10T20:46:52.733Z,6.25
2017-11-10T20:49:20.247Z,6.29
2017-11-10T20:51:47.841Z,6.29
2017-11-10T20:54:15.436Z,6.31
2017-11-10T20:56:42.941Z,6.33
2017-11-10T20:59:10.452Z,6.32
2017-11-10T21:01:38.010Z,6.32
2017-11-10T21:04:05.583Z,6.28
2017-11-10T21:06:33.145Z,6.23
2017-11-10T21:09:00.687Z,6.16
2017-11-10T21:11:28.212Z,6.10
2017-11-10T21:13:55.697Z,6.04
2017-11-10T21:16:23.305Z,6.02
2017-11-10T21:18:50.797Z,5.98
2017-11-10T21:21:18.276Z,5.98
2017-11-10T21:23:45.880Z,5.99
2017-11-10T21:26:13.452Z,6.02
2017-11-10T21:28:40.945Z,6.10
2017-11-10T21:31:08.555Z,6.19
2017-11-10T21:33:36.140Z,6.24
2017-11-10T21:36:03.707Z,6.29
2017-11-10T21:38:31.226Z,6.31
2017-11-10T21:40:58.815Z,6.31
2017-11-10T21:43:26.452Z,6.36
2017-11-10T21:45:53.943Z,6.34
2017-11-10T21:48:21.433Z,6.31
2017-11-10T21:50:49.303Z,6.33
2017-11-10T21:53:16.908Z,6.38
2017-11-10T21:55:44.406Z,6.40
2017-11-10T21:58:11.933Z,6.42
2017-11-10T22:00:39.421Z,6.34
2017-11-10T22:03:06.913Z,6.31
2017-11-10T22:05:34.454Z,6.35
2017-11-10T22:08:01.937Z,6.39
2017-11-10T22:10:29.426Z,6.43
2017-11-10T22:12:57.000Z,6.43
2017-11-10T22:15:24.476Z,6.44
2017-11-10T22:17:52.009Z,6.43
2017-11-10T22:20:19.492Z,6.43
2017-11-10T22:22:46.989Z,6.45
2017-11-10T22:25:14.523Z,6.44
2017-11-10T22:27:42.010Z,6.44
2017-11-10T22:30:09.494Z,6.41
2017-11-10T22:32:37.029Z,6.37
2017-11-10T22:35:04.518Z,6.35
2017-11-10T22:37:32.021Z,6.35
2017-11-10T22:39:59.561Z,6.28
2017-11-10T22:42:27.036Z,6.20
2017-11-10T22:44:54.519Z,6.15
2017-11-10T22:47:22.084Z,6.10
2017-11-10T22:49:49.561Z,6.08
2017-11-10T22:52:17.046Z,6.01
2017-11-10T22:54:44.565Z,6.00
2017-11-10T22:57:12.054Z,5.93
2017-11-10T22:59:39.679Z,5.93
2017-11-10T23:02:07.236Z,5.97
2017-11-10T23:04:34.779Z,6.00
2017-11-10T23:07:02.349Z,5.92
2017-11-10T23:09:29.831Z,5.93
2017-11-10T23:11:57.372Z,5.88
2017-11-10T23:14:24.852Z,5.90
2017-11-10T23:16:52.389Z,5.90
2017-11-10T23:19:19.901Z,5.87
2017-11-10T23:21:47.402Z,5.91
2017-11-10T23:24:14.919Z,5.88
2017-11-10T23:26:42.411Z,5.92
2017-11-10T23:29:09.893Z,5.97
2017-11-10T23:31:37.432Z,5.92
2017-11-10T23:34:04.921Z,5.88
2017-11-10T23:36:32.396Z,5.89
2017-11-10T23:39:00.024Z,5.90
2017-11-10T23:41:27.521Z,5.94
2017-11-10T23:43:55.000Z,5.99
2017-11-10T23:46:22.589Z,5.91
2017-11-10T23:48:50.065Z,5.91
2017-11-10T23:51:17.554Z,5.99
2017-11-10T23:53:45.056Z,5.99
2017-11-10T23:56:12.616Z,5.98
2017-11-10T23:58:41.196Z,5.98
